Time;durP1;ratioP1;P1;durP2;ratioP2;P2;SDS_P1;SDS_P2;PMS_P1;PMS_P2;Temp;Humidity;BMP_temperature;BMP_pressure;BME280_temperature;BME280_humidity;BME280_pressure;Samples;Min_cycle;Max_cycle;Signal;HPM_P1;HPM_P2
2022/10/02 00:01:43;;;;;;;2.10;0.70;;;16.40;97.40;;;;;;4971017;28;20416;-85
2022/10/02 00:04:18;;;;;;;2.67;0.70;;;16.50;97.40;;;;;;4971246;28;20395;-78
2022/10/02 00:06:50;;;;;;;2.22;0.50;;;16.60;97.00;;;;;;4971010;28;20382;-81
2022/10/02 00:09:42;;;;;;;3.25;0.70;;;17.00;94.30;;;;;;4974434;28;20426;-85
2022/10/02 00:12:13;;;;;;;2.97;0.70;;;17.00;94.50;;;;;;4970716;28;20386;-84
2022/10/02 00:14:43;;;;;;;3.65;0.70;;;17.40;93.30;;;;;;4965210;28;20397;-86
2022/10/02 00:17:25;;;;;;;3.83;0.60;;;17.80;95.10;;;;;;4970324;28;20423;-85
2022/10/02 00:19:55;;;;;;;3.30;0.50;;;18.40;93.90;;;;;;4970352;28;20398;-85
2022/10/02 00:22:52;;;;;;;1.90;0.60;;;19.10;90.90;;;;;;4983668;28;20408;-81
2022/10/02 00:25:34;;;;;;;4.28;0.70;;;19.60;89.60;;;;;;5066956;28;20456;-85
2022/10/02 00:28:22;;;;;;;2.50;0.80;;;19.60;86.70;;;;;;5071512;28;20386;-79
2022/10/02 00:31:02;;;;;;;1.77;0.50;;;19.80;87.80;;;;;;5070731;28;20500;-82
2022/10/02 00:33:41;;;;;;;2.70;0.60;;;19.60;82.40;;;;;;5070427;28;20394;-87
2022/10/02 00:36:26;;;;;;;3.73;1.30;;;19.50;85.80;;;;;;5067806;28;20957;-88
2022/10/02 00:39:10;;;;;;;2.80;0.70;;;19.70;81.20;;;;;;5070200;28;20390;-85
2022/10/02 00:41:58;;;;;;;2.33;0.70;;;19.30;83.10;;;;;;5071136;28;20405;-85
2022/10/02 00:44:40;;;;;;;4.13;0.70;;;19.00;82.20;;;;;;5070418;28;20790;-80
2022/10/02 00:47:47;;;;;;;2.30;0.60;;;18.50;81.20;;;;;;5071253;28;20503;-81
2022/10/02 00:50:17;;;;;;;1.77;0.60;;;18.00;83.30;;;;;;5062056;28;20527;-85
2022/10/02 00:52:52;;;;;;;1.80;0.60;;;17.80;87.00;;;;;;5069828;28;20378;-87
2022/10/02 00:55:46;;;;;;;1.77;0.57;;;17.90;85.50;;;;;;5062044;28;20405;-85
2022/10/02 00:59:13;;;;;;;4.15;0.60;;;18.30;85.90;;;;;;5057585;28;20389;-82
2022/10/02 01:01:52;;;;;;;2.57;0.50;;;18.70;83.80;;;;;;5008713;28;20415;-80
2022/10/02 01:04:37;;;;;;;1.47;0.40;;;18.50;83.90;;;;;;5006118;28;20413;-85
2022/10/02 01:07:08;;;;;;;1.88;0.60;;;18.40;83.30;;;;;;4998400;28;20766;-81
2022/10/02 01:09:36;;;;;;;1.92;0.52;;;18.50;79.80;;;;;;5008805;28;20894;-83
2022/10/02 01:12:04;;;;;;;1.05;0.50;;;18.40;77.80;;;;;;5008398;28;20407;-87
2022/10/02 01:14:35;;;;;;;2.05;0.55;;;18.20;78.90;;;;;;5008827;28;20917;-86
2022/10/02 01:17:03;;;;;;;1.70;0.60;;;18.30;80.40;;;;;;4989397;28;20848;-86
2022/10/02 01:19:40;;;;;;;2.50;1.00;;;18.40;81.50;;;;;;5002321;28;20618;-80
2022/10/02 01:22:16;;;;;;;1.88;0.60;;;18.50;78.20;;;;;;5007652;28;20418;-87
2022/10/02 01:24:52;;;;;;;1.35;0.60;;;18.50;77.40;;;;;;5008174;28;20802;-81
2022/10/02 01:27:20;;;;;;;2.00;0.60;;;18.90;79.80;;;;;;5005931;28;20402;-84
2022/10/02 01:30:09;;;;;;;1.83;0.60;;;19.60;77.20;;;;;;5010949;28;20384;-83
2022/10/02 01:32:46;;;;;;;2.42;0.60;;;20.60;73.70;;;;;;4999499;28;20419;-80
2022/10/02 01:35:14;;;;;;;2.30;0.50;;;21.20;70.90;;;;;;5008809;28;20445;-80
2022/10/02 01:37:42;;;;;;;0.88;0.60;;;22.30;67.30;;;;;;5050367;28;20386;-84
2022/10/02 01:40:22;;;;;;;2.22;0.60;;;23.20;60.50;;;;;;5067888;28;20472;-80
2022/10/02 01:42:50;;;;;;;2.05;0.60;;;23.40;62.60;;;;;;5070086;28;20446;-83
2022/10/02 01:45:21;;;;;;;3.90;0.52;;;24.00;62.30;;;;;;5070152;28;20908;-81
2022/10/02 01:48:00;;;;;;;1.95;0.50;;;23.70;61.40;;;;;;5069158;28;20431;-85
2022/10/02 01:50:39;;;;;;;2.83;0.70;;;23.20;60.90;;;;;;5070261;28;20377;-82
2022/10/02 01:53:38;;;;;;;1.75;0.60;;;22.80;61.70;;;;;;5062895;28;20393;-79
2022/10/02 01:56:21;;;;;;;0.90;0.50;;;22.00;62.00;;;;;;5069749;28;20448;-83
2022/10/02 01:59:11;;;;;;;2.35;0.50;;;21.20;64.30;;;;;;5069961;28;20466;-80
2022/10/02 02:02:16;;;;;;;1.25;0.50;;;20.80;66.30;;;;;;5056475;28;20409;-82
2022/10/02 02:05:07;;;;;;;2.95;0.70;;;21.70;66.80;;;;;;5069810;28;20378;-86
2022/10/02 02:07:43;;;;;;;1.35;0.57;;;22.00;63.70;;;;;;5069616;28;20386;-81
2022/10/02 02:10:43;;;;;;;1.17;0.63;;;22.80;63.50;;;;;;5067251;28;20381;-84
2022/10/02 02:13:30;;;;;;;1.17;0.50;;;24.10;61.20;;;;;;5067532;28;20750;-83
2022/10/02 02:16:26;;;;;;;1.42;0.55;;;24.10;56.60;;;;;;5057788;28;20382;-83
2022/10/02 02:19:03;;;;;;;2.83;0.70;;;23.10;57.10;;;;;;4961480;28;20859;-81
2022/10/02 02:21:34;;;;;;;1.17;0.50;;;22.10;58.90;;;;;;4981992;28;20505;-83
2022/10/02 02:24:06;;;;;;;2.30;0.70;;;21.20;62.80;;;;;;4967187;28;20803;-83
2022/10/02 02:26:35;;;;;;;0.98;0.50;;;21.90;64.80;;;;;;4975399;28;20386;-82
2022/10/02 02:29:06;;;;;;;0.85;0.50;;;23.60;59.00;;;;;;4987677;28;20399;-83
2022/10/02 02:31:46;;;;;;;1.02;0.40;;;25.00;57.70;;;;;;4988356;28;20373;-81
2022/10/02 02:34:22;;;;;;;2.20;0.52;;;26.00;55.40;;;;;;4992528;28;20393;-83
2022/10/02 02:36:56;;;;;;;1.50;0.50;;;26.90;53.00;;;;;;4994744;28;20407;-81
2022/10/02 02:39:36;;;;;;;1.58;0.50;;;26.90;51.70;;;;;;4979010;28;20410;-81
2022/10/02 02:42:08;;;;;;;0.73;0.32;;;27.70;50.70;;;;;;4987485;28;20416;-81
2022/10/02 02:44:42;;;;;;;0.60;0.30;;;28.00;47.80;;;;;;4967046;28;20397;-82
2022/10/02 02:47:26;;;;;;;1.08;0.32;;;26.70;49.30;;;;;;4996454;28;20893;-84
2022/10/02 02:50:05;;;;;;;1.52;0.60;;;26.80;48.10;;;;;;5002631;28;20392;-82
2022/10/02 02:52:48;;;;;;;1.03;0.40;;;27.60;47.90;;;;;;4991820;28;20432;-81
2022/10/02 02:55:40;;;;;;;0.68;0.50;;;27.90;47.10;;;;;;5000481;28;20890;-86
2022/10/02 02:58:19;;;;;;;1.00;0.60;;;28.50;48.10;;;;;;5069038;28;20477;-83
2022/10/02 03:00:46;;;;;;;0.80;0.52;;;29.20;47.70;;;;;;5072071;28;20417;-81
2022/10/02 03:03:13;;;;;;;3.97;0.60;;;29.20;46.70;;;;;;5073988;28;20477;-85
2022/10/02 03:05:47;;;;;;;2.88;0.60;;;29.10;46.60;;;;;;5071313;28;20389;-82
2022/10/02 03:08:30;;;;;;;1.50;0.47;;;28.20;45.80;;;;;;5072605;28;20417;-83
2022/10/02 03:11:18;;;;;;;1.42;0.50;;;26.90;47.10;;;;;;5073663;28;20453;-83
2022/10/02 03:14:14;;;;;;;1.00;0.50;;;26.30;49.30;;;;;;5072760;28;20401;-80
2022/10/02 03:17:05;;;;;;;1.40;0.60;;;26.50;49.20;;;;;;5074404;28;20402;-85
2022/10/02 03:19:53;;;;;;;1.50;0.50;;;26.40;48.70;;;;;;5072239;28;20874;-85
2022/10/02 03:22:28;;;;;;;1.17;0.40;;;26.90;46.50;;;;;;5073396;28;20410;-88
2022/10/02 03:25:13;;;;;;;1.33;0.40;;;26.80;45.40;;;;;;5072937;28;20389;-82
2022/10/02 03:28:06;;;;;;;0.88;0.50;;;27.10;46.80;;;;;;5066513;28;20359;-80
2022/10/02 03:30:35;;;;;;;0.98;0.50;;;28.20;45.70;;;;;;5064369;28;20435;-88
2022/10/02 03:33:04;;;;;;;0.95;0.40;;;28.70;43.70;;;;;;5070240;28;21028;-81
2022/10/02 03:35:32;;;;;;;1.00;0.50;;;28.90;42.70;;;;;;5072274;28;20431;-89
2022/10/02 03:38:07;;;;;;;0.88;0.50;;;28.90;43.70;;;;;;5069413;28;20465;-87
2022/10/02 03:40:34;;;;;;;1.13;0.52;;;29.50;44.10;;;;;;5072249;28;20892;-87
2022/10/02 03:43:01;;;;;;;0.68;0.32;;;30.30;43.90;;;;;;5071261;28;20481;-85
2022/10/02 03:45:29;;;;;;;1.10;0.50;;;30.50;40.40;;;;;;5069047;28;20492;-88
2022/10/02 03:47:57;;;;;;;0.73;0.38;;;30.40;40.00;;;;;;5056846;28;20772;-87
2022/10/02 03:50:24;;;;;;;2.00;0.90;;;30.20;41.50;;;;;;5073369;28;20389;-85
2022/10/02 03:52:52;;;;;;;2.08;1.00;;;29.40;46.50;;;;;;5054818;28;20787;-89
2022/10/02 03:55:41;;;;;;;1.55;0.95;;;27.10;50.50;;;;;;5071036;28;20959;-87
2022/10/02 03:58:17;;;;;;;2.53;1.00;;;25.30;54.90;;;;;;5058448;28;20394;-84
2022/10/02 04:01:03;;;;;;;4.03;0.80;;;25.60;55.60;;;;;;5072085;28;20392;-85
2022/10/02 04:04:05;;;;;;;1.75;0.90;;;26.20;54.70;;;;;;5061514;28;20386;-86
2022/10/02 04:06:59;;;;;;;2.85;0.88;;;26.10;55.40;;;;;;5070829;28;20386;-85
2022/10/02 04:09:37;;;;;;;1.40;0.80;;;25.50;56.80;;;;;;5059890;28;20456;-84
2022/10/02 04:12:10;;;;;;;2.60;0.70;;;24.80;57.10;;;;;;5063001;28;20394;-86
2022/10/02 04:14:39;;;;;;;1.33;0.70;;;24.80;58.20;;;;;;5072118;28;20875;-84
2022/10/02 04:17:19;;;;;;;3.30;0.90;;;25.10;58.10;;;;;;5071879;28;20428;-86
2022/10/02 04:19:46;;;;;;;1.83;0.80;;;24.90;57.40;;;;;;5072146;28;20866;-86
2022/10/02 04:22:28;;;;;;;2.85;0.85;;;25.40;56.40;;;;;;5063138;28;20952;-86
2022/10/02 04:25:04;;;;;;;2.75;0.80;;;25.40;56.50;;;;;;5072309;28;20382;-86
2022/10/02 04:27:55;;;;;;;2.40;0.70;;;25.60;55.70;;;;;;5063186;28;20385;-87
2022/10/02 04:30:23;;;;;;;1.20;0.70;;;25.30;55.50;;;;;;5073126;28;20394;-88
2022/10/02 04:32:51;;;;;;;1.88;0.75;;;25.50;56.20;;;;;;5067101;28;20750;-87
2022/10/02 04:35:40;;;;;;;2.42;0.60;;;26.30;55.10;;;;;;5071311;28;20873;-88
2022/10/02 04:38:38;;;;;;;1.77;0.82;;;26.90;54.00;;;;;;5061161;28;20362;-86
2022/10/02 04:41:23;;;;;;;2.07;0.70;;;26.70;53.10;;;;;;5064774;28;20396;-86
2022/10/02 04:44:34;;;;;;;3.30;0.90;;;26.60;53.20;;;;;;5050157;28;20779;-86
2022/10/02 04:47:35;;;;;;;2.60;0.80;;;26.70;53.70;;;;;;4998051;28;20448;-86
2022/10/02 04:50:38;;;;;;;2.90;0.80;;;26.30;53.70;;;;;;4989859;28;20397;-85
2022/10/02 04:53:17;;;;;;;1.42;0.65;;;25.50;54.60;;;;;;4942218;29;20770;-87
2022/10/02 04:56:02;;;;;;;2.50;0.75;;;26.00;54.50;;;;;;4931707;29;20405;-89
2022/10/02 04:58:50;;;;;;;2.05;0.70;;;25.90;54.00;;;;;;4931727;29;20912;-88
2022/10/02 05:01:23;;;;;;;0.98;0.60;;;26.30;54.00;;;;;;4931758;29;20429;-87
2022/10/02 05:03:56;;;;;;;1.83;0.80;;;26.60;52.30;;;;;;4932332;29;20400;-86
2022/10/02 05:07:00;;;;;;;2.92;0.80;;;26.70;52.30;;;;;;4931807;29;20401;-86
2022/10/02 05:10:00;;;;;;;2.20;0.80;;;27.10;51.40;;;;;;4931381;29;20497;-88
2022/10/02 05:12:45;;;;;;;4.05;0.70;;;26.30;52.50;;;;;;4931780;29;20485;-86
2022/10/02 05:15:12;;;;;;;2.20;0.70;;;26.90;52.50;;;;;;4925642;29;20431;-86
2022/10/02 05:18:17;;;;;;;1.77;0.70;;;26.90;51.70;;;;;;4931401;29;20511;-89
2022/10/02 05:21:19;;;;;;;2.25;0.70;;;27.00;51.50;;;;;;4893177;29;20421;-89
2022/10/02 05:23:57;;;;;;;5.38;1.00;;;26.60;52.40;;;;;;4967084;28;20462;-85
2022/10/02 05:26:42;;;;;;;1.20;0.60;;;26.30;52.60;;;;;;4965269;28;20398;-89
2022/10/02 05:29:35;;;;;;;1.90;0.60;;;26.00;52.70;;;;;;4982030;28;20400;-88
2022/10/02 05:32:20;;;;;;;1.80;0.70;;;25.40;54.20;;;;;;5007830;28;20811;-89
2022/10/02 05:35:18;;;;;;;1.48;0.60;;;25.80;53.70;;;;;;5002132;28;20418;-86
2022/10/02 05:38:09;;;;;;;1.73;0.90;;;26.20;52.70;;;;;;5007767;28;20402;-89
2022/10/02 05:40:46;;;;;;;1.45;0.65;;;26.30;52.80;;;;;;5003771;28;20438;-87
2022/10/02 05:43:42;;;;;;;2.10;0.80;;;26.10;53.30;;;;;;5008921;28;20398;-88
2022/10/02 05:46:31;;;;;;;1.40;0.70;;;25.90;53.60;;;;;;5023171;28;20409;-90
2022/10/02 05:49:04;;;;;;;2.33;0.73;;;26.00;52.40;;;;;;5015209;28;20932;-85
2022/10/02 05:51:57;;;;;;;1.15;0.70;;;26.10;52.40;;;;;;5010917;28;20396;-85
2022/10/02 05:54:27;;;;;;;3.13;0.82;;;26.30;52.30;;;;;;5015932;28;20412;-88
2022/10/02 05:57:14;;;;;;;2.08;0.80;;;26.30;52.40;;;;;;5034812;28;20392;-87
2022/10/02 06:00:01;;;;;;;1.40;0.90;;;25.90;53.10;;;;;;5000908;28;20553;-85
2022/10/02 06:02:51;;;;;;;1.58;0.80;;;25.60;53.80;;;;;;4922355;29;20502;-84
2022/10/02 06:05:39;;;;;;;2.33;0.90;;;25.40;53.80;;;;;;4930052;29;20494;-87
2022/10/02 06:08:11;;;;;;;2.67;0.82;;;24.90;54.20;;;;;;4921056;29;20409;-84
2022/10/02 06:10:48;;;;;;;2.38;0.80;;;24.10;55.70;;;;;;4929962;29;20408;-85
2022/10/02 06:13:22;;;;;;;1.40;0.80;;;22.90;57.90;;;;;;4925821;29;20395;-86
2022/10/02 06:15:59;;;;;;;2.22;0.85;;;22.00;60.00;;;;;;4920296;29;20445;-87
2022/10/02 06:18:32;;;;;;;1.83;0.80;;;21.20;62.70;;;;;;4920190;29;20417;-86
2022/10/02 06:21:28;;;;;;;3.13;0.90;;;20.50;64.90;;;;;;4924268;29;20490;-85
2022/10/02 06:24:01;;;;;;;1.97;0.80;;;19.80;67.50;;;;;;4924239;29;21333;-88
2022/10/02 06:26:34;;;;;;;1.88;0.75;;;19.20;69.90;;;;;;4931532;29;20370;-85
2022/10/02 06:29:11;;;;;;;2.13;0.77;;;19.10;71.40;;;;;;4937435;29;20476;-88
2022/10/02 06:31:46;;;;;;;2.25;0.93;;;19.30;71.20;;;;;;4931100;29;20417;-83
2022/10/02 06:34:14;;;;;;;1.45;0.70;;;19.40;72.10;;;;;;4931469;29;20405;-85
2022/10/02 06:37:00;;;;;;;1.40;0.80;;;20.40;70.90;;;;;;4941266;28;20392;-88
2022/10/02 06:39:33;;;;;;;1.65;0.80;;;21.40;67.00;;;;;;5013151;28;20414;-82
2022/10/02 06:42:21;;;;;;;3.50;0.82;;;21.60;66.40;;;;;;5069984;28;20807;-84
2022/10/02 06:45:24;;;;;;;2.13;1.05;;;21.70;65.40;;;;;;5060921;28;22330;-84
2022/10/02 06:48:08;;;;;;;1.70;0.90;;;21.80;65.00;;;;;;5063481;28;20420;-85
2022/10/02 06:50:43;;;;;;;2.00;1.17;;;22.20;64.60;;;;;;5076089;28;20545;-87
2022/10/02 06:53:38;;;;;;;3.58;2.05;;;22.40;63.30;;;;;;5050463;28;20450;-86
2022/10/02 06:56:22;;;;;;;3.22;2.33;;;22.50;62.60;;;;;;5072934;28;20430;-86
2022/10/02 06:59:08;;;;;;;2.13;1.13;;;22.40;63.10;;;;;;5073100;28;20389;-89
2022/10/02 07:02:27;;;;;;;2.85;0.90;;;22.30;63.40;;;;;;5069922;28;20402;-88
2022/10/02 07:05:31;;;;;;;3.28;1.30;;;22.60;62.60;;;;;;5018627;28;20442;-91
2022/10/02 07:08:10;;;;;;;1.60;0.90;;;22.40;62.90;;;;;;5023766;28;20864;-84
2022/10/02 07:11:27;;;;;;;1.52;0.93;;;22.50;63.10;;;;;;5018533;28;20402;-88
2022/10/02 07:14:26;;;;;;;3.00;0.90;;;22.40;62.50;;;;;;5012671;28;20395;-89
2022/10/02 07:17:19;;;;;;;2.45;1.08;;;22.10;63.30;;;;;;4941088;28;20388;-91
2022/10/02 07:20:20;;;;;;;3.50;1.23;;;21.80;64.30;;;;;;4939634;29;20517;-88
2022/10/02 07:23:28;;;;;;;2.78;1.40;;;21.30;64.90;;;;;;4952888;29;20438;-89
2022/10/02 07:26:06;;;;;;;3.33;1.27;;;21.00;65.90;;;;;;4895604;29;20429;-87
2022/10/02 07:28:44;;;;;;;4.35;2.10;;;20.40;67.40;;;;;;4895368;29;20401;-86
2022/10/02 07:31:50;;;;;;;2.33;1.40;;;19.80;69.10;;;;;;4897223;29;20401;-91
2022/10/02 07:34:50;;;;;;;3.30;1.50;;;19.10;70.80;;;;;;4895880;29;20482;-88
2022/10/02 07:37:54;;;;;;;1.77;1.00;;;18.70;73.90;;;;;;4881401;29;20402;-90
2022/10/02 07:40:48;;;;;;;2.08;1.00;;;17.70;74.20;;;;;;4894890;29;20393;-90
2022/10/02 07:43:44;;;;;;;2.92;1.40;;;18.30;75.50;;;;;;4926903;29;20405;-90
2022/10/02 07:47:00;;;;;;;2.55;1.50;;;18.00;76.70;;;;;;4933349;29;20472;-88
2022/10/02 07:49:43;;;;;;;4.57;1.50;;;17.60;79.90;;;;;;4899267;29;20435;-90
2022/10/02 07:52:16;;;;;;;2.53;1.83;;;17.20;82.60;;;;;;4881710;29;20461;-91
2022/10/02 07:55:02;;;;;;;2.78;1.67;;;16.90;86.40;;;;;;4874011;29;20405;-90
2022/10/02 07:58:04;;;;;;;3.05;1.60;;;16.60;90.20;;;;;;4880383;29;20401;-90
2022/10/02 08:00:47;;;;;;;3.30;1.25;;;16.30;92.60;;;;;;4858815;29;20397;-88
2022/10/02 08:03:32;;;;;;;3.70;1.58;;;16.10;94.20;;;;;;4892070;29;20401;-91
2022/10/02 08:06:00;;;;;;;3.87;2.00;;;16.00;95.80;;;;;;4896725;29;20405;-90
2022/10/02 08:08:39;;;;;;;5.00;2.25;;;15.90;97.00;;;;;;4896979;29;20480;-89
2022/10/02 08:11:30;;;;;;;4.57;1.90;;;15.80;97.60;;;;;;4915374;29;20397;-89
2022/10/02 08:14:01;;;;;;;4.22;1.60;;;15.60;98.50;;;;;;4916713;29;20430;-87
2022/10/02 08:16:38;;;;;;;2.13;1.40;;;15.40;99.40;;;;;;4907447;29;20989;-90
2022/10/02 08:19:32;;;;;;;2.78;1.50;;;15.30;99.90;;;;;;4913141;29;20502;-89
2022/10/02 08:22:08;;;;;;;2.70;1.40;;;15.20;99.90;;;;;;4860303;29;20457;-89
2022/10/02 08:24:48;;;;;;;4.03;1.85;;;15.10;99.90;;;;;;4859609;29;20417;-89
2022/10/02 08:27:18;;;;;;;3.20;2.20;;;15.00;99.90;;;;;;4914738;29;20458;-89
2022/10/02 08:30:05;;;;;;;3.20;2.30;;;14.90;99.90;;;;;;4914843;29;20384;-86
2022/10/02 08:32:36;;;;;;;7.70;4.28;;;14.80;99.90;;;;;;4914401;29;20388;-89
2022/10/02 08:35:16;;;;;;;8.07;4.97;;;14.60;99.90;;;;;;4970352;28;20853;-89
2022/10/02 08:37:45;;;;;;;3.60;2.00;;;14.60;99.90;;;;;;4991762;28;20892;-87
2022/10/02 08:40:42;;;;;;;3.10;1.60;;;14.60;99.90;;;;;;4974196;28;20971;-89
2022/10/02 08:43:24;;;;;;;2.03;1.50;;;14.60;99.90;;;;;;4974059;28;20429;-88
2022/10/02 08:46:24;;;;;;;4.22;1.60;;;14.60;99.90;;;;;;4990114;28;20455;-88
2022/10/02 08:49:12;;;;;;;3.50;1.40;;;14.50;99.90;;;;;;4968696;28;20439;-88
2022/10/02 08:52:03;;;;;;;3.30;1.38;;;14.40;99.90;;;;;;4990701;28;20404;-89
2022/10/02 08:54:41;;;;;;;2.70;1.40;;;14.20;99.90;;;;;;4994161;28;21033;-88
2022/10/02 08:57:29;;;;;;;3.75;1.38;;;14.20;99.90;;;;;;4979628;28;20394;-86
2022/10/02 09:00:13;;;;;;;2.95;1.30;;;14.10;99.90;;;;;;5046504;28;20382;-85
2022/10/02 09:02:49;;;;;;;2.65;1.33;;;14.00;99.90;;;;;;5071327;28;20412;-89
2022/10/02 09:05:47;;;;;;;4.40;1.63;;;13.90;99.90;;;;;;5053770;28;20394;-84
2022/10/02 09:08:45;;;;;;;4.53;1.65;;;13.90;99.90;;;;;;5070343;28;20386;-87
2022/10/02 09:11:49;;;;;;;4.35;1.50;;;13.80;99.90;;;;;;5066936;28;20374;-86
2022/10/02 09:14:32;;;;;;;2.42;1.30;;;13.80;99.90;;;;;;5071288;28;20374;-87
2022/10/02 09:17:31;;;;;;;2.88;1.48;;;13.70;99.90;;;;;;5070158;28;20378;-86
2022/10/02 09:20:28;;;;;;;3.80;1.80;;;13.70;99.90;;;;;;5070309;28;21338;-85
2022/10/02 09:23:32;;;;;;;3.05;1.77;;;13.60;99.90;;;;;;5070575;28;21283;-88
2022/10/02 09:26:29;;;;;;;2.00;1.63;;;13.60;99.90;;;;;;5070508;28;20465;-87
2022/10/02 09:29:33;;;;;;;4.10;1.90;;;13.50;99.90;;;;;;5070789;28;20382;-86
2022/10/02 09:32:41;;;;;;;2.90;1.90;;;13.40;99.90;;;;;;5055388;28;20512;-88
2022/10/02 09:35:47;;;;;;;3.28;2.10;;;13.30;99.90;;;;;;5070808;28;20385;-88
2022/10/02 09:38:45;;;;;;;7.40;2.70;;;13.20;99.90;;;;;;5042452;28;20793;-88
2022/10/02 09:41:49;;;;;;;4.13;2.65;;;13.10;99.90;;;;;;5064230;28;20398;-89
2022/10/02 09:44:44;;;;;;;6.63;3.10;;;13.10;99.90;;;;;;5068876;28;20390;-84
2022/10/02 09:47:20;;;;;;;4.63;3.30;;;13.00;99.90;;;;;;5052644;28;21037;-86
2022/10/02 09:50:21;;;;;;;6.53;3.20;;;12.90;99.90;;;;;;5057726;28;20370;-85
2022/10/02 09:52:57;;;;;;;8.73;4.03;;;12.90;99.90;;;;;;5069779;28;20887;-84
2022/10/02 09:55:48;;;;;;;9.45;5.30;;;14.10;99.90;;;;;;5061000;28;20443;-88
2022/10/02 09:58:44;;;;;;;7.60;4.80;;;12.90;99.90;;;;;;5057533;28;20385;-88
2022/10/02 10:01:38;;;;;;;6.60;4.22;;;12.90;99.90;;;;;;5071124;28;20852;-87
2022/10/02 10:04:58;;;;;;;5.78;3.83;;;12.80;99.90;;;;;;5071438;28;20374;-85
2022/10/02 10:07:40;;;;;;;4.95;3.10;;;12.70;99.90;;;;;;4988358;28;20419;-89
2022/10/02 10:10:37;;;;;;;5.18;2.95;;;12.70;99.90;;;;;;4989240;28;20931;-89
2022/10/02 10:13:16;;;;;;;4.20;3.10;;;12.60;99.90;;;;;;4986303;28;20474;-87
2022/10/02 10:16:28;;;;;;;4.15;2.90;;;12.60;99.90;;;;;;4989654;28;20389;-86
2022/10/02 10:19:25;;;;;;;5.55;3.67;;;12.60;99.90;;;;;;4973062;28;20389;-87
2022/10/02 10:22:15;;;;;;;6.63;3.43;;;12.60;99.90;;;;;;4973426;28;20773;-87
2022/10/02 10:25:13;;;;;;;5.30;3.17;;;12.60;99.90;;;;;;4989409;28;20909;-84
2022/10/02 10:28:14;;;;;;;3.88;2.78;;;12.50;99.90;;;;;;4976430;28;20388;-88
2022/10/02 10:30:50;;;;;;;5.55;2.80;;;12.50;99.90;;;;;;4990423;28;20397;-89
2022/10/02 10:33:53;;;;;;;5.50;3.00;;;12.50;99.90;;;;;;4977335;28;20741;-90
2022/10/02 10:40:00;;;;;;;5.72;3.45;;;12.40;99.90;;;;;;4993680;28;21180;-86
2022/10/02 10:42:51;;;;;;;4.93;3.03;;;12.40;99.90;;;;;;5051829;28;20813;-86
2022/10/02 10:45:52;;;;;;;3.88;2.70;;;12.40;99.90;;;;;;5079187;28;20817;-86
2022/10/02 10:48:58;;;;;;;5.05;2.90;;;12.20;99.90;;;;;;5064992;28;20389;-90
2022/10/02 10:51:32;;;;;;;4.68;2.95;;;12.20;99.90;;;;;;5060502;28;20417;-87
2022/10/02 10:54:32;;;;;;;5.00;2.97;;;12.20;99.90;;;;;;5085586;28;20372;-88
2022/10/02 10:57:11;;;;;;;5.30;3.90;;;12.20;99.90;;;;;;5048787;28;20893;-86
2022/10/02 11:00:06;;;;;;;6.25;3.90;;;12.20;99.90;;;;;;5074135;28;20377;-87
2022/10/02 11:02:42;;;;;;;19.35;9.50;;;12.30;99.90;;;;;;5067922;28;20433;-87
2022/10/02 11:05:15;;;;;;;13.95;9.50;;;12.20;99.90;;;;;;5073823;28;20393;-88
2022/10/02 11:08:20;;;;;;;21.42;12.85;;;12.20;99.90;;;;;;5073799;28;20393;-87
2022/10/02 11:11:12;;;;;;;23.33;17.17;;;12.20;99.90;;;;;;5071763;28;20895;-88
2022/10/02 11:13:50;;;;;;;19.75;16.30;;;12.30;99.90;;;;;;5061704;28;20849;-86
2022/10/02 11:16:37;;;;;;;16.90;13.48;;;12.30;99.90;;;;;;5072102;28;20393;-86
2022/10/02 11:19:29;;;;;;;14.35;11.23;;;12.40;99.90;;;;;;5046842;28;20393;-87
2022/10/02 11:22:13;;;;;;;11.23;8.83;;;12.50;99.90;;;;;;5073592;28;20410;-90
2022/10/02 11:25:21;;;;;;;12.32;9.52;;;12.50;99.90;;;;;;5056042;28;20961;-87
2022/10/02 11:27:56;;;;;;;10.75;7.20;;;12.50;99.90;;;;;;4992336;28;20411;-88
2022/10/02 11:30:48;;;;;;;7.70;5.80;;;12.50;99.90;;;;;;4992341;28;20385;-91
2022/10/02 11:33:56;;;;;;;7.13;4.60;;;12.40;99.90;;;;;;4994081;28;20399;-89
2022/10/02 11:36:42;;;;;;;5.35;3.97;;;12.30;99.90;;;;;;4942237;29;20381;-86
2022/10/02 11:39:26;;;;;;;8.10;4.07;;;12.30;99.90;;;;;;4945934;29;20780;-87
2022/10/02 11:41:54;;;;;;;8.13;3.92;;;12.40;99.90;;;;;;4939827;29;20425;-86
2022/10/02 11:44:43;;;;;;;7.23;4.20;;;12.40;99.90;;;;;;4941939;29;20482;-90
2022/10/02 11:47:27;;;;;;;8.37;4.50;;;12.40;99.90;;;;;;4953047;29;20462;-88
2022/10/02 11:50:30;;;;;;;8.88;5.13;;;12.30;99.90;;;;;;4933448;29;20480;-89
2022/10/02 11:53:10;;;;;;;6.00;4.63;;;12.30;99.90;;;;;;4951761;29;20392;-88
2022/10/02 11:55:44;;;;;;;7.55;4.38;;;12.20;99.90;;;;;;4935697;29;20416;-90
2022/10/02 11:58:40;;;;;;;5.05;3.90;;;12.20;99.90;;;;;;4952411;29;20403;-90
2022/10/02 12:01:23;;;;;;;5.30;3.67;;;12.10;99.90;;;;;;4951330;29;20404;-88
2022/10/02 12:04:17;;;;;;;5.88;4.00;;;12.00;99.90;;;;;;4970718;28;20391;-86
2022/10/02 12:06:59;;;;;;;7.45;4.10;;;11.90;99.90;;;;;;4985479;28;20426;-85
2022/10/02 12:09:26;;;;;;;6.83;4.10;;;11.90;99.90;;;;;;5011144;28;20446;-86
2022/10/02 12:12:12;;;;;;;5.38;3.97;;;11.80;99.90;;;;;;5010803;28;20403;-86
2022/10/02 12:14:48;;;;;;;6.40;4.00;;;11.70;99.90;;;;;;5073349;28;20518;-86
2022/10/02 12:17:32;;;;;;;5.53;3.30;;;11.70;99.90;;;;;;5073428;28;20415;-86
2022/10/02 12:29:18;;;;;;;5.82;3.30;;;11.40;99.90;;;;;;5095395;28;20464;-85
2022/10/02 12:31:54;;;;;;;6.20;3.58;;;11.40;99.90;;;;;;5080856;28;20463;-89
2022/10/02 12:34:34;;;;;;;4.30;3.33;;;11.30;99.90;;;;;;5072462;28;20460;-86
2022/10/02 12:37:26;;;;;;;6.13;4.00;;;11.30;99.90;;;;;;5063452;28;20425;-86
2022/10/02 12:40:00;;;;;;;6.63;4.10;;;11.20;99.90;;;;;;5072021;28;20388;-87
2022/10/02 12:42:39;;;;;;;4.95;3.92;;;11.20;99.90;;;;;;5072465;28;20405;-87
2022/10/02 12:45:19;;;;;;;7.15;4.10;;;11.20;99.90;;;;;;5069005;28;20390;-87
2022/10/02 12:48:06;;;;;;;6.80;4.00;;;11.10;99.90;;;;;;5071744;28;20398;-87
2022/10/02 12:50:40;;;;;;;5.33;4.10;;;11.00;99.90;;;;;;5068970;28;20494;-88
2022/10/02 12:53:40;;;;;;;6.15;4.25;;;10.90;99.90;;;;;;5060314;28;20374;-87
2022/10/02 12:56:23;;;;;;;6.43;4.10;;;11.10;99.90;;;;;;5070099;28;20386;-89
2022/10/02 12:59:02;;;;;;;6.18;3.90;;;10.90;99.90;;;;;;5065773;28;20871;-83
2022/10/02 13:01:47;;;;;;;7.03;3.90;;;11.10;99.90;;;;;;5078387;28;20398;-85
2022/10/02 13:04:42;;;;;;;7.70;4.45;;;11.10;99.90;;;;;;5075102;28;20396;-84
2022/10/02 13:07:43;;;;;;;6.13;4.60;;;11.20;99.90;;;;;;5079605;28;20429;-84
2022/10/02 13:10:21;;;;;;;6.28;4.40;;;11.30;99.90;;;;;;5066021;28;20381;-85
2022/10/02 13:12:51;;;;;;;7.70;4.25;;;11.40;99.90;;;;;;5051252;28;20752;-84
2022/10/02 13:15:37;;;;;;;6.68;4.20;;;11.50;99.90;;;;;;5066348;28;20378;-84
2022/10/02 13:18:33;;;;;;;6.15;4.00;;;11.50;99.90;;;;;;5067173;28;20503;-84
2022/10/02 13:21:26;;;;;;;6.90;4.00;;;11.60;99.90;;;;;;5071038;28;20436;-84
2022/10/02 13:24:03;;;;;;;6.32;3.70;;;11.70;99.90;;;;;;5062187;28;20401;-85
2022/10/02 13:27:01;;;;;;;8.02;3.60;;;11.70;99.90;;;;;;5071294;28;20473;-84
2022/10/02 13:29:28;;;;;;;6.15;4.00;;;11.70;99.90;;;;;;5062063;28;20386;-84
2022/10/02 13:32:04;;;;;;;5.47;3.70;;;11.70;99.90;;;;;;5068126;28;20380;-87
2022/10/02 13:34:34;;;;;;;6.15;3.50;;;11.70;99.90;;;;;;5069021;28;20411;-85
2022/10/02 13:37:14;;;;;;;5.80;3.92;;;11.60;99.90;;;;;;5067443;28;20409;-86
2022/10/02 13:40:06;;;;;;;5.17;3.90;;;11.60;99.90;;;;;;5065598;28;20386;-85
2022/10/02 13:43:02;;;;;;;4.72;3.70;;;11.50;99.90;;;;;;5070790;28;20412;-85
2022/10/02 13:46:02;;;;;;;7.93;3.80;;;11.50;99.90;;;;;;5082155;28;20807;-86
2022/10/02 13:48:53;;;;;;;6.47;3.70;;;11.50;99.90;;;;;;5061151;28;20977;-85
2022/10/02 13:51:57;;;;;;;6.72;3.70;;;11.40;99.90;;;;;;5072304;28;20413;-86
2022/10/02 13:54:51;;;;;;;5.23;3.60;;;11.40;99.90;;;;;;5068617;28;20373;-85
2022/10/02 13:57:21;;;;;;;5.00;3.58;;;11.30;99.90;;;;;;5061965;28;20891;-87
2022/10/02 14:00:22;;;;;;;4.85;3.45;;;11.30;99.90;;;;;;5071886;28;20382;-84
2022/10/02 14:03:14;;;;;;;6.72;3.83;;;11.20;99.90;;;;;;5069561;28;20455;-86
2022/10/02 14:05:53;;;;;;;5.47;3.90;;;11.20;99.90;;;;;;5075557;28;20443;-87
2022/10/02 14:08:45;;;;;;;5.40;3.70;;;11.20;99.90;;;;;;5076989;28;20394;-86
2022/10/02 14:11:30;;;;;;;6.45;3.67;;;11.20;99.90;;;;;;5077328;28;20873;-86
2022/10/02 14:14:27;;;;;;;6.22;3.63;;;11.20;99.90;;;;;;5077133;28;20385;-86
2022/10/02 14:17:17;;;;;;;4.68;3.70;;;11.20;99.90;;;;;;5077514;28;20391;-86
2022/10/02 14:19:55;;;;;;;5.78;3.65;;;11.20;99.90;;;;;;5076219;28;20952;-85
2022/10/02 14:22:47;;;;;;;6.90;3.75;;;11.00;99.90;;;;;;5059392;28;20409;-85
2022/10/02 14:25:17;;;;;;;6.60;3.83;;;11.00;99.90;;;;;;5075168;28;20400;-88
2022/10/02 14:28:23;;;;;;;5.80;3.92;;;11.00;99.90;;;;;;5071231;28;20489;-85
2022/10/02 14:30:54;;;;;;;7.35;3.63;;;10.90;99.90;;;;;;5076283;28;20431;-86